createdAt,value
2022-10-04T00:02:07.482Z,30.74
2022-10-04T00:04:45.322Z,29.40
2022-10-04T00:07:14.906Z,33.56
2022-10-04T00:09:58.797Z,32.84
2022-10-04T00:12:47.465Z,30.67
2022-10-04T00:15:39.078Z,30.80
2022-10-04T00:18:30.096Z,32.19
2022-10-04T00:21:04.650Z,29.27
2022-10-04T00:23:40.936Z,28.43
2022-10-04T00:26:26.107Z,32.24
2022-10-04T00:28:56.789Z,32.68
2022-10-04T00:31:28.586Z,29.21
2022-10-04T00:34:10.692Z,30.39
2022-10-04T00:36:47.286Z,30.70
2022-10-04T00:39:20.322Z,34.03
2022-10-04T00:41:50.543Z,27.61
2022-10-04T00:44:38.798Z,28.49
2022-10-04T00:47:23.348Z,31.16
2022-10-04T00:50:00.543Z,33.56
2022-10-04T00:52:36.890Z,30.45
2022-10-04T00:55:11.253Z,29.67
2022-10-04T00:57:49.664Z,33.81
2022-10-04T01:00:22.863Z,31.45
2022-10-04T01:03:06.886Z,31.15
2022-10-04T01:05:48.632Z,29.24
2022-10-04T01:08:30.063Z,31.55
2022-10-04T01:11:09.940Z,29.82
2022-10-04T01:13:44.751Z,30.37
2022-10-04T01:16:22.608Z,28.14
2022-10-04T01:18:53.583Z,32.60
2022-10-04T01:21:32.765Z,34.05
2022-10-04T01:24:03.073Z,31.11
2022-10-04T01:26:43.186Z,32.96
2022-10-04T01:29:28.765Z,30.82
2022-10-04T01:32:01.870Z,34.45
2022-10-04T01:34:32.842Z,34.41
2022-10-04T01:37:03.535Z,28.05
2022-10-04T01:39:33.646Z,29.04
2022-10-04T01:42:18.478Z,31.98
2022-10-04T01:45:03.352Z,36.46
2022-10-04T01:47:37.446Z,29.78
2022-10-04T01:50:15.961Z,28.55
2022-10-04T01:52:57.253Z,32.74
2022-10-04T01:55:36.389Z,28.53
2022-10-04T01:58:29.564Z,26.11
2022-10-04T02:01:08.250Z,27.01
2022-10-04T02:04:22.437Z,35.33
2022-10-04T02:06:56.988Z,26.98
2022-10-04T02:09:35.680Z,29.28
2022-10-04T02:12:07.455Z,26.42
2022-10-04T02:14:40.498Z,27.99
2022-10-04T02:17:13.709Z,26.71
2022-10-04T02:19:46.218Z,26.94
2022-10-04T02:22:17.545Z,26.68
2022-10-04T02:24:50.993Z,27.96
2022-10-04T02:27:20.979Z,29.33
2022-10-04T02:29:51.552Z,33.28
2022-10-04T02:32:39.525Z,29.01
2022-10-04T02:35:09.857Z,25.78
2022-10-04T02:37:41.349Z,28.53
2022-10-04T02:40:17.886Z,25.60
2022-10-04T02:42:50.222Z,31.90
2022-10-04T02:45:54.483Z,28.01
2022-10-04T02:49:02.387Z,31.89
2022-10-04T02:51:38.085Z,32.17
2022-10-04T02:54:23.014Z,36.29
2022-10-04T02:56:54.774Z,35.45
2022-10-04T02:59:25.468Z,32.83
2022-10-04T03:01:57.784Z,29.69
2022-10-04T03:04:35.418Z,34.43
2022-10-04T03:07:10.051Z,35.05
2022-10-04T03:09:42.206Z,28.34
2022-10-04T03:12:14.985Z,30.98
2022-10-04T03:14:44.951Z,29.70
2022-10-04T03:17:18.389Z,26.77
2022-10-04T03:19:51.615Z,33.50
2022-10-04T03:22:24.575Z,32.02
2022-10-04T03:24:59.035Z,29.05
2022-10-04T03:27:35.180Z,27.53
2022-10-04T03:30:06.412Z,34.18
2022-10-04T03:32:37.335Z,32.06
2022-10-04T03:35:14.157Z,34.53
2022-10-04T03:37:45.034Z,31.64
2022-10-04T03:40:17.118Z,34.53
2022-10-04T03:42:48.529Z,26.83
2022-10-04T03:45:21.941Z,29.72
2022-10-04T03:47:54.901Z,32.74
2022-10-04T03:50:41.095Z,25.14
2022-10-04T03:53:44.304Z,27.96
2022-10-04T03:56:18.505Z,31.15
2022-10-04T03:58:51.936Z,29.11
2022-10-04T04:01:40.557Z,31.45
2022-10-04T04:04:36.991Z,31.52
2022-10-04T04:07:16.361Z,26.36
2022-10-04T04:09:53.593Z,31.02
2022-10-04T04:12:35.431Z,26.09
2022-10-04T04:15:08.493Z,32.18
2022-10-04T04:17:52.680Z,30.59
2022-10-04T04:20:30.758Z,34.12
2022-10-04T04:23:01.117Z,32.73
2022-10-04T04:25:36.271Z,34.27
2022-10-04T04:28:28.636Z,32.77
2022-10-04T04:31:22.902Z,28.57
2022-10-04T04:34:05.480Z,31.04
2022-10-04T04:36:43.938Z,29.99
2022-10-04T04:39:35.686Z,31.57
2022-10-04T04:42:25.004Z,30.47
2022-10-04T04:45:03.105Z,31.53
2022-10-04T04:47:40.344Z,31.90
2022-10-04T04:50:20.499Z,34.09
2022-10-04T04:52:56.253Z,34.58
2022-10-04T04:55:56.311Z,30.35
2022-10-04T04:58:29.361Z,26.74
2022-10-04T05:01:22.634Z,34.18
2022-10-04T05:04:16.625Z,34.05
2022-10-04T05:06:51.250Z,34.42
2022-10-04T05:09:35.489Z,29.95
2022-10-04T05:12:11.516Z,23.12
2022-10-04T05:14:47.422Z,27.41
2022-10-04T05:17:34.672Z,26.73
2022-10-04T05:20:06.877Z,22.42
2022-10-04T05:22:38.853Z,24.85
2022-10-04T05:25:16.977Z,29.18
2022-10-04T05:27:47.640Z,32.63
2022-10-04T05:30:23.461Z,24.42
2022-10-04T05:32:52.765Z,23.76
2022-10-04T05:35:25.085Z,23.11
2022-10-04T05:38:04.089Z,24.66
2022-10-04T05:41:09.016Z,24.89
2022-10-04T05:43:46.775Z,31.14
2022-10-04T05:46:28.695Z,29.04
2022-10-04T05:49:00.260Z,26.83
2022-10-04T05:51:50.249Z,33.04
2022-10-04T05:54:35.406Z,30.11
2022-10-04T05:57:23.911Z,32.33
2022-10-04T06:00:34.655Z,33.64
2022-10-04T06:03:04.563Z,33.34
2022-10-04T06:06:19.167Z,32.27
2022-10-04T06:09:15.434Z,33.49
2022-10-04T06:11:44.993Z,33.72
2022-10-04T06:14:53.944Z,33.55
2022-10-04T06:18:22.987Z,34.89
2022-10-04T06:21:18.820Z,33.78
2022-10-04T06:23:59.600Z,34.29
2022-10-04T06:26:45.190Z,34.57
2022-10-04T06:29:25.103Z,33.85
2022-10-04T06:32:00.983Z,34.50
2022-10-04T06:35:07.993Z,35.09
2022-10-04T06:38:03.707Z,35.13
2022-10-04T06:41:05.727Z,34.75
2022-10-04T06:43:52.938Z,34.85
2022-10-04T06:46:35.337Z,34.44
2022-10-04T06:49:24.593Z,34.76
2022-10-04T06:52:03.373Z,34.54
2022-10-04T06:55:05.243Z,29.48
2022-10-04T06:58:01.556Z,28.98
2022-10-04T07:00:36.604Z,32.79
2022-10-04T07:03:17.510Z,31.42
2022-10-04T07:06:03.056Z,32.63
2022-10-04T07:08:53.220Z,32.16
2022-10-04T07:11:34.693Z,32.25
2022-10-04T07:14:46.869Z,35.62
2022-10-04T07:17:31.610Z,34.21
2022-10-04T07:20:04.808Z,33.92
2022-10-04T07:22:54.746Z,33.22
2022-10-04T07:25:45.581Z,34.59
2022-10-04T07:28:42.424Z,34.48
2022-10-04T07:31:33.071Z,34.18
2022-10-04T07:34:23.494Z,33.38
2022-10-04T07:37:01.720Z,33.02
2022-10-04T07:39:54.318Z,33.25
2022-10-04T07:42:42.243Z,33.86
2022-10-04T07:45:18.115Z,33.58
2022-10-04T07:47:48.972Z,32.81
2022-10-04T07:50:34.963Z,32.93
2022-10-04T07:53:18.762Z,32.79
2022-10-04T07:55:53.246Z,33.08
2022-10-04T07:58:57.422Z,30.71
2022-10-04T08:02:05.080Z,35.23
2022-10-04T08:05:00.367Z,33.78
2022-10-04T08:07:47.582Z,32.51
2022-10-04T08:10:44.378Z,34.19
2022-10-04T08:13:46.129Z,34.38
2022-10-04T08:16:25.396Z,34.47
2022-10-04T08:19:30.420Z,34.22
2022-10-04T08:22:15.288Z,32.46
2022-10-04T08:25:20.211Z,33.86
2022-10-04T08:28:40.732Z,34.54
2022-10-04T08:31:36.031Z,34.29
2022-10-04T08:34:47.514Z,34.10
2022-10-04T08:37:48.737Z,33.94
2022-10-04T08:40:40.544Z,34.54
2022-10-04T08:43:27.020Z,33.69
2022-10-04T08:46:19.972Z,33.48
2022-10-04T08:49:06.209Z,34.05
2022-10-04T08:52:26.345Z,33.22
2022-10-04T08:55:22.202Z,33.11
2022-10-04T08:58:10.001Z,31.65
2022-10-04T09:00:59.932Z,32.42
2022-10-04T09:04:02.902Z,34.02
2022-10-04T09:06:58.339Z,34.00
2022-10-04T09:09:45.711Z,33.22
2022-10-04T09:12:21.857Z,32.65
2022-10-04T09:15:00.300Z,32.53
2022-10-04T09:17:59.633Z,34.13
2022-10-04T09:20:54.173Z,34.17
2022-10-04T09:23:57.581Z,34.16
2022-10-04T09:26:46.229Z,34.46
2022-10-04T09:29:53.473Z,34.55
2022-10-04T09:32:48.023Z,34.32
2022-10-04T09:35:46.834Z,34.48
2022-10-04T09:39:11.546Z,34.80
2022-10-04T09:41:50.497Z,34.95
2022-10-04T09:44:54.604Z,35.14
2022-10-04T09:47:38.922Z,34.51
2022-10-04T09:50:28.163Z,35.44
2022-10-04T09:53:19.623Z,35.05
2022-10-04T09:56:19.552Z,35.40
2022-10-04T09:59:23.298Z,36.34
2022-10-04T10:02:20.070Z,35.63
2022-10-04T10:05:31.251Z,36.50
2022-10-04T10:08:28.418Z,36.35
2022-10-04T10:11:37.543Z,36.16
2022-10-04T10:14:10.263Z,36.11
2022-10-04T10:17:02.203Z,36.49
2022-10-04T10:19:52.942Z,37.02
2022-10-04T10:22:59.429Z,37.13
2022-10-04T10:25:50.596Z,37.71
2022-10-04T10:28:50.994Z,36.38
2022-10-04T10:31:33.043Z,35.89
2022-10-04T10:34:03.130Z,36.68
2022-10-04T10:37:02.439Z,37.32
2022-10-04T10:39:50.885Z,35.98
2022-10-04T10:42:39.241Z,36.02
2022-10-04T10:45:34.014Z,36.24
2022-10-04T10:48:21.688Z,36.73
2022-10-04T10:51:16.736Z,36.35
2022-10-04T10:54:23.570Z,36.05
2022-10-04T10:57:08.675Z,37.06
2022-10-04T11:00:15.325Z,37.91
2022-10-04T11:03:13.752Z,37.84
2022-10-04T11:05:59.388Z,38.46
2022-10-04T11:08:38.302Z,38.79
2022-10-04T11:11:08.361Z,37.71
2022-10-04T11:13:51.485Z,37.63
2022-10-04T11:16:30.595Z,37.57
2022-10-04T11:19:03.745Z,37.53
2022-10-04T11:22:27.195Z,37.63
2022-10-04T11:25:26.733Z,38.36
2022-10-04T11:28:19.918Z,38.25
2022-10-04T11:31:13.665Z,37.77
2022-10-04T11:34:13.227Z,37.40
2022-10-04T11:37:22.741Z,38.14
2022-10-04T11:40:16.600Z,36.89
2022-10-04T11:42:59.935Z,37.53
2022-10-04T11:45:35.333Z,38.09
2022-10-04T11:48:18.575Z,38.01
2022-10-04T11:51:23.626Z,37.60
2022-10-04T11:53:59.615Z,37.45
2022-10-04T11:56:47.995Z,37.67
2022-10-04T11:59:26.360Z,37.25
2022-10-04T12:02:24.958Z,37.18
2022-10-04T12:05:13.602Z,37.33
2022-10-04T12:08:21.193Z,38.20
2022-10-04T12:11:26.358Z,38.86
2022-10-04T12:13:59.069Z,37.67
2022-10-04T12:16:45.140Z,38.21
2022-10-04T12:19:34.936Z,38.25
2022-10-04T12:22:22.340Z,38.23
2022-10-04T12:25:16.989Z,38.08
2022-10-04T12:28:24.466Z,38.61
2022-10-04T12:31:26.740Z,38.59
2022-10-04T12:34:19.707Z,38.88
2022-10-04T12:37:05.105Z,38.43
2022-10-04T12:40:09.810Z,38.46
2022-10-04T12:42:48.505Z,38.11
2022-10-04T12:45:46.512Z,38.24
2022-10-04T12:48:17.712Z,37.81
2022-10-04T12:51:08.361Z,38.40
2022-10-04T12:53:41.524Z,38.20
2022-10-04T12:56:33.390Z,38.21
2022-10-04T12:59:16.623Z,38.11
2022-10-04T13:02:06.317Z,38.10
2022-10-04T13:04:51.650Z,38.14
2022-10-04T13:08:01.136Z,38.07
2022-10-04T13:11:05.035Z,38.09
2022-10-04T13:14:12.491Z,38.30
2022-10-04T13:17:30.301Z,39.00
2022-10-04T13:20:32.476Z,39.21
2022-10-04T13:23:24.200Z,38.58
2022-10-04T13:26:25.116Z,38.57
2022-10-04T13:29:05.740Z,39.37
2022-10-04T13:31:39.273Z,39.24
2022-10-04T13:34:21.324Z,39.13
2022-10-04T13:37:03.694Z,39.20
2022-10-04T13:39:56.179Z,39.10
2022-10-04T13:42:52.072Z,39.51
2022-10-04T13:45:59.016Z,39.50
2022-10-04T13:48:43.561Z,39.57
2022-10-04T13:51:35.461Z,39.15
2022-10-04T13:54:42.338Z,39.56
2022-10-04T13:57:38.868Z,40.00
2022-10-04T14:00:16.150Z,39.69
2022-10-04T14:03:12.597Z,38.55
2022-10-04T14:06:07.955Z,39.75
2022-10-04T14:08:46.801Z,39.42
2022-10-04T14:11:48.202Z,38.42
2022-10-04T14:14:46.788Z,39.54
2022-10-04T14:17:28.930Z,38.58
2022-10-04T14:20:26.704Z,39.50
2022-10-04T14:23:05.939Z,39.51
2022-10-04T14:25:48.329Z,40.17
2022-10-04T14:28:28.319Z,39.96
2022-10-04T14:31:23.346Z,40.25
2022-10-04T14:34:35.644Z,39.78
2022-10-04T14:37:50.575Z,40.54
2022-10-04T14:40:54.495Z,40.53
2022-10-04T14:43:47.769Z,41.11
2022-10-04T14:46:18.334Z,41.69
2022-10-04T14:49:02.520Z,40.93
2022-10-04T14:52:07.852Z,41.83
2022-10-04T14:54:45.268Z,41.63
2022-10-04T14:57:39.682Z,42.24
2022-10-04T15:00:32.915Z,41.58
2022-10-04T15:03:15.821Z,41.99
2022-10-04T15:06:07.865Z,42.10
2022-10-04T15:09:14.522Z,42.88
2022-10-04T15:12:25.523Z,42.68
2022-10-04T15:15:15.792Z,42.58
2022-10-04T15:17:55.546Z,42.00
2022-10-04T15:20:37.730Z,41.36
2022-10-04T15:23:18.103Z,41.55
2022-10-04T15:25:53.324Z,41.40
2022-10-04T15:28:53.454Z,41.46
2022-10-04T15:31:47.731Z,42.70
2022-10-04T15:34:36.261Z,42.58
2022-10-04T15:37:24.440Z,43.08
2022-10-04T15:40:33.718Z,42.85
2022-10-04T15:43:16.035Z,42.81
2022-10-04T15:46:21.910Z,43.25
2022-10-04T15:49:09.878Z,43.24
2022-10-04T15:52:17.470Z,43.37
2022-10-04T15:55:14.997Z,42.63
2022-10-04T15:57:48.266Z,42.24
2022-10-04T16:00:52.743Z,41.35
2022-10-04T16:03:41.956Z,40.89
2022-10-04T16:06:34.531Z,41.34
2022-10-04T16:09:19.175Z,41.98
2022-10-04T16:12:02.676Z,41.75
2022-10-04T16:14:52.212Z,41.86
2022-10-04T16:17:26.522Z,41.39
2022-10-04T16:20:09.256Z,42.03
2022-10-04T16:22:39.716Z,41.60
2022-10-04T16:25:27.813Z,41.59
2022-10-04T16:27:58.020Z,41.18
2022-10-04T16:30:39.402Z,41.12
2022-10-04T16:33:30.163Z,40.89
2022-10-04T16:36:22.230Z,41.11
2022-10-04T16:39:20.210Z,41.53
2022-10-04T16:42:19.082Z,42.28
2022-10-04T16:45:19.149Z,42.47
2022-10-04T16:48:02.958Z,43.02
2022-10-04T16:51:09.324Z,43.31
2022-10-04T16:54:19.101Z,43.03
2022-10-04T16:56:58.892Z,45.02
2022-10-04T16:59:43.244Z,43.34
2022-10-04T17:02:47.501Z,43.37
2022-10-04T17:05:54.561Z,43.97
2022-10-04T17:08:48.265Z,44.63
2022-10-04T17:11:29.596Z,45.23
2022-10-04T17:14:26.165Z,44.39
2022-10-04T17:17:08.592Z,44.98
2022-10-04T17:19:52.483Z,45.45
2022-10-04T17:22:55.467Z,43.96
2022-10-04T17:25:34.687Z,45.11
2022-10-04T17:28:27.522Z,44.76
2022-10-04T17:31:04.203Z,44.75
2022-10-04T17:34:23.248Z,44.39
2022-10-04T17:36:58.632Z,45.34
2022-10-04T17:40:09.701Z,44.54
2022-10-04T17:42:58.233Z,45.42
2022-10-04T17:46:07.184Z,45.53
2022-10-04T17:49:24.103Z,46.65
2022-10-04T17:52:16.687Z,46.69
2022-10-04T17:55:11.747Z,47.75
2022-10-04T17:57:43.899Z,47.60
2022-10-04T18:00:26.443Z,45.88
2022-10-04T18:03:14.463Z,45.66
2022-10-04T18:05:45.756Z,45.92
2022-10-04T18:08:20.007Z,45.87
2022-10-04T18:10:57.724Z,46.10
2022-10-04T18:13:38.477Z,46.90
2022-10-04T18:16:30.509Z,46.56
2022-10-04T18:19:25.183Z,45.48
2022-10-04T18:21:57.798Z,46.36
2022-10-04T18:24:34.270Z,45.70
2022-10-04T18:27:19.892Z,44.89
2022-10-04T18:30:14.759Z,44.78
2022-10-04T18:32:53.790Z,44.43
2022-10-04T18:35:36.034Z,44.53
2022-10-04T18:38:30.476Z,44.99
2022-10-04T18:41:24.686Z,44.13
2022-10-04T18:44:00.955Z,44.00
2022-10-04T18:46:41.243Z,44.37
2022-10-04T18:49:26.931Z,44.46
2022-10-04T18:52:02.827Z,44.79
2022-10-04T18:55:04.582Z,45.05
2022-10-04T18:58:00.671Z,44.75
2022-10-04T19:01:03.858Z,45.30
2022-10-04T19:03:39.826Z,44.99
2022-10-04T19:06:32.613Z,43.63
2022-10-04T19:09:21.008Z,45.70
2022-10-04T19:12:03.954Z,45.84
2022-10-04T19:15:15.113Z,45.97
2022-10-04T19:18:10.225Z,46.65
2022-10-04T19:20:43.027Z,47.58
2022-10-04T19:23:44.506Z,45.82
2022-10-04T19:26:32.119Z,46.94
2022-10-04T19:29:28.880Z,46.90
2022-10-04T19:32:02.178Z,46.90
2022-10-04T19:35:14.533Z,47.12
2022-10-04T19:38:02.844Z,47.56
2022-10-04T19:40:50.027Z,48.51
2022-10-04T19:43:49.154Z,47.35
2022-10-04T19:46:44.158Z,46.63
2022-10-04T19:49:36.094Z,47.42
2022-10-04T19:52:42.540Z,46.84
2022-10-04T19:55:18.877Z,47.95
2022-10-04T19:57:55.517Z,47.62
2022-10-04T20:00:25.659Z,48.35
2022-10-04T20:02:56.027Z,48.62
2022-10-04T20:05:26.816Z,47.86
2022-10-04T20:08:08.966Z,47.06
2022-10-04T20:10:41.938Z,47.44
2022-10-04T20:13:24.886Z,46.39
2022-10-04T20:16:00.984Z,47.02
2022-10-04T20:18:33.977Z,46.10
2022-10-04T20:21:06.738Z,46.25
2022-10-04T20:23:50.175Z,46.72
2022-10-04T20:26:55.099Z,46.49
2022-10-04T20:29:40.875Z,47.12
2022-10-04T20:32:40.083Z,46.51
2022-10-04T20:35:34.159Z,47.31
2022-10-04T20:38:30.563Z,48.19
2022-10-04T20:40:55.621Z,47.55
2022-10-04T20:43:28.513Z,48.55
2022-10-04T20:45:59.992Z,48.43
2022-10-04T20:48:35.057Z,48.19
2022-10-04T20:51:12.372Z,48.47
2022-10-04T20:53:52.117Z,48.57
2022-10-04T20:56:33.465Z,47.98
2022-10-04T20:59:06.106Z,48.53
2022-10-04T21:01:45.231Z,49.88
2022-10-04T21:04:46.846Z,48.02
2022-10-04T21:07:21.251Z,46.75
2022-10-04T21:09:54.554Z,49.34
2022-10-04T21:12:34.574Z,48.41
2022-10-04T21:15:22.768Z,48.57
2022-10-04T21:18:04.512Z,47.58
2022-10-04T21:20:47.456Z,46.85
2022-10-04T21:23:43.651Z,47.58
2022-10-04T21:26:27.372Z,47.98
2022-10-04T21:28:59.076Z,49.81
2022-10-04T21:31:29.341Z,48.60
2022-10-04T21:34:00.014Z,48.83
2022-10-04T21:36:30.504Z,48.82
2022-10-04T21:39:00.637Z,48.97
2022-10-04T21:41:31.683Z,48.15
2022-10-04T21:44:02.127Z,48.30
2022-10-04T21:46:32.357Z,48.51
2022-10-04T21:49:03.960Z,48.40
2022-10-04T21:51:37.462Z,48.17
2022-10-04T21:54:09.213Z,48.80
2022-10-04T21:56:39.520Z,48.85
2022-10-04T21:59:09.671Z,50.02
2022-10-04T22:01:39.703Z,50.62
2022-10-04T22:04:09.682Z,50.49
2022-10-04T22:06:39.731Z,49.82
2022-10-04T22:09:10.169Z,50.20
2022-10-04T22:11:40.837Z,50.68
2022-10-04T22:14:11.049Z,49.97
2022-10-04T22:16:41.701Z,51.09
2022-10-04T22:19:11.911Z,51.30
2022-10-04T22:21:42.462Z,51.33
2022-10-04T22:27:04.586Z,51.38
2022-10-04T22:29:36.259Z,50.78
2022-10-04T22:32:15.082Z,49.73
2022-10-04T22:34:45.381Z,50.63
2022-10-04T22:37:15.701Z,50.39
2022-10-04T22:39:45.821Z,51.44
2022-10-04T22:42:16.947Z,50.67
2022-10-04T22:44:47.704Z,50.84
2022-10-04T22:47:18.445Z,50.35
2022-10-04T22:49:49.855Z,50.79
2022-10-04T22:52:22.939Z,51.20
2022-10-04T22:54:54.422Z,48.54
2022-10-04T22:57:26.222Z,50.49
2022-10-04T22:59:56.882Z,50.72
2022-10-04T23:02:31.364Z,50.96
2022-10-04T23:05:13.491Z,50.20
2022-10-04T23:07:43.794Z,48.03
2022-10-04T23:10:16.564Z,50.15
2022-10-04T23:12:52.235Z,50.20
2022-10-04T23:15:23.804Z,49.94
2022-10-04T23:17:59.675Z,49.40
2022-10-04T23:20:31.637Z,47.86
2022-10-04T23:23:02.344Z,49.75
2022-10-04T23:25:33.130Z,48.88
2022-10-04T23:28:15.252Z,47.98
2022-10-04T23:30:48.433Z,49.05
2022-10-04T23:33:25.507Z,48.23
2022-10-04T23:35:59.748Z,48.82
2022-10-04T23:38:32.954Z,47.98
2022-10-04T23:41:04.009Z,48.28
2022-10-04T23:43:34.531Z,47.72
2022-10-04T23:46:12.166Z,47.23
2022-10-04T23:48:43.180Z,46.58
2022-10-04T23:51:17.817Z,46.49
2022-10-04T23:53:50.712Z,47.33
2022-10-04T23:56:27.115Z,45.70
2022-10-04T23:59:00.986Z,46.24
